Wilmington, DE (19806)

8:39 AM EDT on August 21, 2014 (GMT -0400)
Woodbrook | Change Station
CLOSE
Current Station
Personal Weather Station
Location: Wilmington, DE
Elevation: 325 ft
Nearby Weather Stations

Elev 325 ft 39.79 °N, 75.56 °W | Updated 8 minutes ago

Overcast
Overcast
70.7 °F
Feels Like 70.7 °F
N
0.0
Wind Variable Wind from ESE

Today
High -- | Low -- °F
--% Chance of Precip.
Yesterday
High -- | Low -- °F
Precip. -- in
6:19 AM 7:50 PM
Waning Crescent, 14% visible
Pressure 30.07 in
Visibility 10.0 miles
Clouds Overcast 1300 ft
Dew Point 68 °F
Humidity 92%
Rainfall 0.00 in
Snow Depth Not available.
UV 1 out of 12
Pollen 8.60 out of 12
Air Quality Not available.
Flu Activity Not available.
SPECI KILG 211229Z 00000KT 10SM OVC013 23/19 A3007 RMK AO2 T02280194

More Conditions Fewer Conditions

Pressure 30.07 in
Visibility 10.0 miles
Clouds Overcast 1300 ft
Dew Point 68 °F
Humidity 92%
Rainfall 0.00 in
Snow Depth Not available.
UV 1 out of 12
Pollen 8.60 out of 12
Air Quality Not available.
Flu Activity Not available.
SPECI KILG 211229Z 00000KT 10SM OVC013 23/19 A3007 RMK AO2 T02280194

More Conditions Fewer Conditions

10-Day Weather Forecast

Almanac

Astronomy

Aug. 21, 2014 Rise Set
Actual Time 6:19 AM EDT 7:50 PM EDT
Civil Twilight 5:51 AM EDT 8:18 PM EDT
Nautical Twilight 5:17 AM EDT 8:52 PM EDT
Astronomical Twilight 4:41 AM EDT 9:28 PM EDT
Moon 2:48 AM EDT 5:17 PM EDT
Length of Visible Light 14h 26m
Length of Day
13h 30m
Tomorrow will be 2m 23s shorter.
Waning Crescent, 14% of the Moon is Illuminated
Today
Waning Crescent
Aug 25
New
Sep 2
First Quarter
Sep 8
Full
Sep 15
Last Quarter

Today's Extremes

State Highs State Lows

Community

WunderPhotos

Upload Photos

1,745,892 photos uploaded!

WunderBlogs® & News

Nearby

Snow Depth

Station Depth Elevation
No new snow has been reported.

Earthquake Activity

City Distance Mag. Time & Date
No recent earthquake activity has been reported nearby.
Minimum magnitude displayed is 2.5.

Coastal Water Temperatures

Place Temperature
Cape May, NJ 79.0 °F
Reedy Point, DE 78.1 °F
Delaware City, DE 78.1 °F
Marcus Hook, PA 78.1 °F

Nearby Weather Stations